sensor_id;sensor_type;location;lat;lon;timestamp;temperature;humidity
3134;DHT22;1577;49.912;10.924;2023-03-24T00:00:38;12.70;99.90
3134;DHT22;1577;49.912;10.924;2023-03-24T00:03:04;12.70;99.90
3134;DHT22;1577;49.912;10.924;2023-03-24T00:05:29;12.70;99.90
3134;DHT22;1577;49.912;10.924;2023-03-24T00:07:56;12.70;99.90
3134;DHT22;1577;49.912;10.924;2023-03-24T00:10:22;12.70;99.90
3134;DHT22;1577;49.912;10.924;2023-03-24T00:12:48;12.80;99.90
3134;DHT22;1577;49.912;10.924;2023-03-24T00:15:17;12.70;99.90
3134;DHT22;1577;49.912;10.924;2023-03-24T00:17:45;12.70;99.90
3134;DHT22;1577;49.912;10.924;2023-03-24T00:20:13;12.70;99.90
3134;DHT22;1577;49.912;10.924;2023-03-24T00:22:48;12.70;99.90
3134;DHT22;1577;49.912;10.924;2023-03-24T00:25:20;12.70;99.90
3134;DHT22;1577;49.912;10.924;2023-03-24T00:27:48;12.70;99.90
3134;DHT22;1577;49.912;10.924;2023-03-24T00:30:16;12.70;99.90
3134;DHT22;1577;49.912;10.924;2023-03-24T00:32:43;12.80;99.90
3134;DHT22;1577;49.912;10.924;2023-03-24T00:35:10;12.80;99.90
3134;DHT22;1577;49.912;10.924;2023-03-24T00:37:38;12.80;99.90
3134;DHT22;1577;49.912;10.924;2023-03-24T00:40:09;12.80;99.90
3134;DHT22;1577;49.912;10.924;2023-03-24T00:42:38;12.80;99.90
3134;DHT22;1577;49.912;10.924;2023-03-24T00:45:05;12.80;99.90
3134;DHT22;1577;49.912;10.924;2023-03-24T00:47:32;12.80;99.90
3134;DHT22;1577;49.912;10.924;2023-03-24T00:50:08;12.90;99.90
3134;DHT22;1577;49.912;10.924;2023-03-24T00:52:34;12.90;99.90
3134;DHT22;1577;49.912;10.924;2023-03-24T00:55:02;12.90;99.90
3134;DHT22;1577;49.912;10.924;2023-03-24T00:57:29;12.90;99.90
3134;DHT22;1577;49.912;10.924;2023-03-24T01:00:00;12.90;99.90
3134;DHT22;1577;49.912;10.924;2023-03-24T01:02:33;12.90;99.90
3134;DHT22;1577;49.912;10.924;2023-03-24T01:04:59;12.90;99.90
3134;DHT22;1577;49.912;10.924;2023-03-24T01:07:28;12.90;99.90
3134;DHT22;1577;49.912;10.924;2023-03-24T01:09:55;12.90;99.90
3134;DHT22;1577;49.912;10.924;2023-03-24T01:12:33;13.00;99.90
3134;DHT22;1577;49.912;10.924;2023-03-24T01:15:05;12.90;99.90
3134;DHT22;1577;49.912;10.924;2023-03-24T01:17:31;12.90;99.90
3134;DHT22;1577;49.912;10.924;2023-03-24T01:19:58;12.90;99.90
3134;DHT22;1577;49.912;10.924;2023-03-24T01:22:29;12.90;99.90
3134;DHT22;1577;49.912;10.924;2023-03-24T01:24:55;12.90;99.90
3134;DHT22;1577;49.912;10.924;2023-03-24T01:27:20;12.80;99.90
3134;DHT22;1577;49.912;10.924;2023-03-24T01:29:46;12.80;99.90
3134;DHT22;1577;49.912;10.924;2023-03-24T01:32:11;12.80;99.90
3134;DHT22;1577;49.912;10.924;2023-03-24T01:34:37;12.80;99.90
3134;DHT22;1577;49.912;10.924;2023-03-24T01:37:03;12.70;99.90
3134;DHT22;1577;49.912;10.924;2023-03-24T01:39:29;12.70;99.90
3134;DHT22;1577;49.912;10.924;2023-03-24T01:41:55;12.70;99.90
3134;DHT22;1577;49.912;10.924;2023-03-24T01:44:24;12.60;99.90
3134;DHT22;1577;49.912;10.924;2023-03-24T01:46:52;12.50;99.90
3134;DHT22;1577;49.912;10.924;2023-03-24T01:49:18;12.50;99.90
3134;DHT22;1577;49.912;10.924;2023-03-24T01:51:47;12.40;99.90
3134;DHT22;1577;49.912;10.924;2023-03-24T01:54:19;12.40;99.90
3134;DHT22;1577;49.912;10.924;2023-03-24T01:56:49;12.40;99.90
3134;DHT22;1577;49.912;10.924;2023-03-24T01:59:19;12.40;99.90
3134;DHT22;1577;49.912;10.924;2023-03-24T02:01:46;12.40;99.90
3134;DHT22;1577;49.912;10.924;2023-03-24T02:04:12;12.40;99.90
3134;DHT22;1577;49.912;10.924;2023-03-24T02:06:41;12.40;99.90
3134;DHT22;1577;49.912;10.924;2023-03-24T02:09:09;12.30;99.90
3134;DHT22;1577;49.912;10.924;2023-03-24T02:11:36;12.30;99.90
3134;DHT22;1577;49.912;10.924;2023-03-24T02:14:04;12.40;99.90
3134;DHT22;1577;49.912;10.924;2023-03-24T02:17:01;12.30;99.90
3134;DHT22;1577;49.912;10.924;2023-03-24T02:19:49;12.30;99.90
3134;DHT22;1577;49.912;10.924;2023-03-24T02:39:23;12.40;99.90
3134;DHT22;1577;49.912;10.924;2023-03-24T02:42:04;12.40;99.90
3134;DHT22;1577;49.912;10.924;2023-03-24T02:44:34;12.40;99.90
3134;DHT22;1577;49.912;10.924;2023-03-24T02:49:42;12.40;99.90
3134;DHT22;1577;49.912;10.924;2023-03-24T02:52:33;12.40;99.90
3134;DHT22;1577;49.912;10.924;2023-03-24T02:55:09;12.40;99.90
3134;DHT22;1577;49.912;10.924;2023-03-24T02:57:44;12.40;99.90
3134;DHT22;1577;49.912;10.924;2023-03-24T03:00:27;12.40;99.90
3134;DHT22;1577;49.912;10.924;2023-03-24T03:03:00;12.40;99.90
3134;DHT22;1577;49.912;10.924;2023-03-24T03:05:43;12.30;99.90
3134;DHT22;1577;49.912;10.924;2023-03-24T03:08:12;12.30;99.90
3134;DHT22;1577;49.912;10.924;2023-03-24T03:10:42;12.30;99.90
3134;DHT22;1577;49.912;10.924;2023-03-24T03:13:16;12.40;99.90
3134;DHT22;1577;49.912;10.924;2023-03-24T03:15:47;12.40;99.90
3134;DHT22;1577;49.912;10.924;2023-03-24T03:18:48;12.40;99.90
3134;DHT22;1577;49.912;10.924;2023-03-24T03:21:18;12.40;99.90
3134;DHT22;1577;49.912;10.924;2023-03-24T03:27:20;12.40;99.90
3134;DHT22;1577;49.912;10.924;2023-03-24T03:29:51;12.40;99.90
3134;DHT22;1577;49.912;10.924;2023-03-24T03:32:24;12.50;99.90
3134;DHT22;1577;49.912;10.924;2023-03-24T03:35:13;12.50;99.90
3134;DHT22;1577;49.912;10.924;2023-03-24T03:38:15;12.50;99.90
3134;DHT22;1577;49.912;10.924;2023-03-24T03:40:52;12.50;99.90
3134;DHT22;1577;49.912;10.924;2023-03-24T03:43:20;12.50;99.90
3134;DHT22;1577;49.912;10.924;2023-03-24T03:45:46;12.50;99.90
3134;DHT22;1577;49.912;10.924;2023-03-24T03:48:13;12.50;99.90
3134;DHT22;1577;49.912;10.924;2023-03-24T03:50:40;12.50;99.90
3134;DHT22;1577;49.912;10.924;2023-03-24T03:53:06;12.60;99.90
3134;DHT22;1577;49.912;10.924;2023-03-24T03:55:32;12.60;99.90
3134;DHT22;1577;49.912;10.924;2023-03-24T03:58:00;12.60;99.90
3134;DHT22;1577;49.912;10.924;2023-03-24T04:00:26;12.60;99.90
3134;DHT22;1577;49.912;10.924;2023-03-24T04:05:31;12.60;99.90
3134;DHT22;1577;49.912;10.924;2023-03-24T04:14:08;12.70;99.90
3134;DHT22;1577;49.912;10.924;2023-03-24T04:25:18;12.70;99.90
3134;DHT22;1577;49.912;10.924;2023-03-24T04:27:58;12.70;99.90
3134;DHT22;1577;49.912;10.924;2023-03-24T04:30:48;12.70;99.90
3134;DHT22;1577;49.912;10.924;2023-03-24T04:33:23;12.80;99.90
3134;DHT22;1577;49.912;10.924;2023-03-24T04:36:12;12.80;99.90
3134;DHT22;1577;49.912;10.924;2023-03-24T04:38:47;12.80;99.90
3134;DHT22;1577;49.912;10.924;2023-03-24T04:41:15;12.80;99.90
3134;DHT22;1577;49.912;10.924;2023-03-24T04:43:42;12.80;99.90
3134;DHT22;1577;49.912;10.924;2023-03-24T04:46:10;12.80;99.90
3134;DHT22;1577;49.912;10.924;2023-03-24T04:48:35;12.80;99.90
3134;DHT22;1577;49.912;10.924;2023-03-24T04:51:02;12.90;99.90
3134;DHT22;1577;49.912;10.924;2023-03-24T04:53:28;12.90;99.90
3134;DHT22;1577;49.912;10.924;2023-03-24T04:56:32;12.90;99.90
3134;DHT22;1577;49.912;10.924;2023-03-24T04:59:00;12.90;99.90
3134;DHT22;1577;49.912;10.924;2023-03-24T05:01:26;13.00;99.90
3134;DHT22;1577;49.912;10.924;2023-03-24T05:03:57;13.00;99.90
3134;DHT22;1577;49.912;10.924;2023-03-24T05:06:23;13.00;99.90
3134;DHT22;1577;49.912;10.924;2023-03-24T05:08:50;13.00;99.90
3134;DHT22;1577;49.912;10.924;2023-03-24T05:11:17;13.00;99.90
3134;DHT22;1577;49.912;10.924;2023-03-24T05:13:43;13.00;99.90
3134;DHT22;1577;49.912;10.924;2023-03-24T05:16:09;13.00;99.90
3134;DHT22;1577;49.912;10.924;2023-03-24T05:18:35;13.00;99.90
3134;DHT22;1577;49.912;10.924;2023-03-24T05:21:01;13.00;99.90
3134;DHT22;1577;49.912;10.924;2023-03-24T05:23:27;13.00;99.90
3134;DHT22;1577;49.912;10.924;2023-03-24T05:25:52;13.00;99.90
3134;DHT22;1577;49.912;10.924;2023-03-24T05:28:18;13.10;99.90
3134;DHT22;1577;49.912;10.924;2023-03-24T05:30:43;13.00;99.90
3134;DHT22;1577;49.912;10.924;2023-03-24T05:33:09;13.10;99.90
3134;DHT22;1577;49.912;10.924;2023-03-24T05:35:35;13.10;99.90
3134;DHT22;1577;49.912;10.924;2023-03-24T05:38:00;13.10;99.90
3134;DHT22;1577;49.912;10.924;2023-03-24T05:40:26;13.10;99.90
3134;DHT22;1577;49.912;10.924;2023-03-24T05:42:52;13.10;99.90
3134;DHT22;1577;49.912;10.924;2023-03-24T05:45:17;13.10;99.90
3134;DHT22;1577;49.912;10.924;2023-03-24T05:47:43;13.10;99.90
3134;DHT22;1577;49.912;10.924;2023-03-24T05:50:09;13.10;99.90
3134;DHT22;1577;49.912;10.924;2023-03-24T05:52:35;13.00;99.90
3134;DHT22;1577;49.912;10.924;2023-03-24T05:55:01;13.00;99.90
3134;DHT22;1577;49.912;10.924;2023-03-24T05:57:26;13.00;99.90
3134;DHT22;1577;49.912;10.924;2023-03-24T05:59:55;13.10;99.90
3134;DHT22;1577;49.912;10.924;2023-03-24T06:02:21;13.10;99.90
3134;DHT22;1577;49.912;10.924;2023-03-24T06:04:46;13.00;99.90
3134;DHT22;1577;49.912;10.924;2023-03-24T06:07:14;13.10;99.90
3134;DHT22;1577;49.912;10.924;2023-03-24T06:09:39;13.10;99.90
3134;DHT22;1577;49.912;10.924;2023-03-24T06:12:08;13.10;99.90
3134;DHT22;1577;49.912;10.924;2023-03-24T06:14:34;13.10;99.90
3134;DHT22;1577;49.912;10.924;2023-03-24T06:16:59;13.10;99.90
3134;DHT22;1577;49.912;10.924;2023-03-24T06:19:26;13.10;99.90
3134;DHT22;1577;49.912;10.924;2023-03-24T06:21:55;13.10;99.90
3134;DHT22;1577;49.912;10.924;2023-03-24T06:24:20;13.10;99.90
3134;DHT22;1577;49.912;10.924;2023-03-24T06:26:46;13.20;99.90
3134;DHT22;1577;49.912;10.924;2023-03-24T06:29:15;13.30;99.90
3134;DHT22;1577;49.912;10.924;2023-03-24T06:31:45;13.30;99.90
3134;DHT22;1577;49.912;10.924;2023-03-24T06:34:12;13.30;99.90
3134;DHT22;1577;49.912;10.924;2023-03-24T06:36:37;13.30;99.90
3134;DHT22;1577;49.912;10.924;2023-03-24T06:39:03;13.40;99.90
3134;DHT22;1577;49.912;10.924;2023-03-24T06:41:32;13.40;99.90
3134;DHT22;1577;49.912;10.924;2023-03-24T06:43:58;13.50;99.90
3134;DHT22;1577;49.912;10.924;2023-03-24T06:46:24;13.50;99.90
3134;DHT22;1577;49.912;10.924;2023-03-24T06:48:49;13.50;99.90
3134;DHT22;1577;49.912;10.924;2023-03-24T06:51:16;13.50;99.90
3134;DHT22;1577;49.912;10.924;2023-03-24T06:53:42;13.50;99.90
3134;DHT22;1577;49.912;10.924;2023-03-24T06:56:10;13.50;99.90
3134;DHT22;1577;49.912;10.924;2023-03-24T06:58:41;13.50;99.90
3134;DHT22;1577;49.912;10.924;2023-03-24T07:01:07;13.40;99.90
3134;DHT22;1577;49.912;10.924;2023-03-24T07:03:32;13.40;99.90
3134;DHT22;1577;49.912;10.924;2023-03-24T07:05:58;13.30;99.90
3134;DHT22;1577;49.912;10.924;2023-03-24T07:08:24;13.30;99.90
3134;DHT22;1577;49.912;10.924;2023-03-24T07:10:50;13.20;99.90
3134;DHT22;1577;49.912;10.924;2023-03-24T07:13:16;13.20;99.90
3134;DHT22;1577;49.912;10.924;2023-03-24T07:15:41;13.10;99.90
3134;DHT22;1577;49.912;10.924;2023-03-24T07:18:07;13.10;99.90
3134;DHT22;1577;49.912;10.924;2023-03-24T07:20:32;13.10;99.90
3134;DHT22;1577;49.912;10.924;2023-03-24T07:22:58;13.10;99.90
3134;DHT22;1577;49.912;10.924;2023-03-24T07:25:24;13.00;99.90
3134;DHT22;1577;49.912;10.924;2023-03-24T07:27:52;13.00;99.90
3134;DHT22;1577;49.912;10.924;2023-03-24T07:30:19;13.00;99.90
3134;DHT22;1577;49.912;10.924;2023-03-24T07:32:45;13.00;99.90
3134;DHT22;1577;49.912;10.924;2023-03-24T07:35:11;13.00;99.90
3134;DHT22;1577;49.912;10.924;2023-03-24T07:37:38;13.00;99.90
3134;DHT22;1577;49.912;10.924;2023-03-24T07:40:05;13.00;99.90
3134;DHT22;1577;49.912;10.924;2023-03-24T07:42:37;13.00;99.90
3134;DHT22;1577;49.912;10.924;2023-03-24T07:45:04;13.00;99.90
3134;DHT22;1577;49.912;10.924;2023-03-24T07:47:30;13.00;99.90
3134;DHT22;1577;49.912;10.924;2023-03-24T07:49:56;13.10;99.90
3134;DHT22;1577;49.912;10.924;2023-03-24T07:52:22;13.10;99.90
3134;DHT22;1577;49.912;10.924;2023-03-24T07:54:47;13.10;99.90
3134;DHT22;1577;49.912;10.924;2023-03-24T07:57:13;13.20;99.90
3134;DHT22;1577;49.912;10.924;2023-03-24T07:59:38;13.10;99.90
3134;DHT22;1577;49.912;10.924;2023-03-24T08:02:04;13.10;99.90
3134;DHT22;1577;49.912;10.924;2023-03-24T08:04:33;13.20;99.90
3134;DHT22;1577;49.912;10.924;2023-03-24T08:06:59;13.20;99.90
3134;DHT22;1577;49.912;10.924;2023-03-24T08:09:24;13.20;99.90
3134;DHT22;1577;49.912;10.924;2023-03-24T08:11:50;13.20;99.90
3134;DHT22;1577;49.912;10.924;2023-03-24T08:14:16;13.30;99.90
3134;DHT22;1577;49.912;10.924;2023-03-24T08:16:41;13.20;99.90
3134;DHT22;1577;49.912;10.924;2023-03-24T08:19:10;13.20;99.90
3134;DHT22;1577;49.912;10.924;2023-03-24T08:21:35;13.30;99.90
3134;DHT22;1577;49.912;10.924;2023-03-24T08:24:01;13.30;99.90
3134;DHT22;1577;49.912;10.924;2023-03-24T08:26:26;13.30;99.90
3134;DHT22;1577;49.912;10.924;2023-03-24T08:28:59;13.30;99.90
3134;DHT22;1577;49.912;10.924;2023-03-24T08:31:34;13.40;99.90
3134;DHT22;1577;49.912;10.924;2023-03-24T08:33:59;13.50;99.90
3134;DHT22;1577;49.912;10.924;2023-03-24T08:36:25;13.60;99.90
3134;DHT22;1577;49.912;10.924;2023-03-24T08:38:52;13.80;99.90
3134;DHT22;1577;49.912;10.924;2023-03-24T08:41:20;13.90;99.90
3134;DHT22;1577;49.912;10.924;2023-03-24T08:43:47;14.00;99.90
3134;DHT22;1577;49.912;10.924;2023-03-24T08:46:12;14.10;99.90
3134;DHT22;1577;49.912;10.924;2023-03-24T08:48:39;14.20;99.90
3134;DHT22;1577;49.912;10.924;2023-03-24T08:51:13;14.20;99.90
3134;DHT22;1577;49.912;10.924;2023-03-24T08:53:39;14.30;99.90
3134;DHT22;1577;49.912;10.924;2023-03-24T08:56:05;14.30;99.90
3134;DHT22;1577;49.912;10.924;2023-03-24T08:58:31;14.40;99.90
3134;DHT22;1577;49.912;10.924;2023-03-24T09:00:57;14.50;99.90
3134;DHT22;1577;49.912;10.924;2023-03-24T09:03:22;14.50;99.90
3134;DHT22;1577;49.912;10.924;2023-03-24T09:05:48;14.60;99.90
3134;DHT22;1577;49.912;10.924;2023-03-24T09:08:17;14.60;99.90
3134;DHT22;1577;49.912;10.924;2023-03-24T09:10:43;14.70;99.90
3134;DHT22;1577;49.912;10.924;2023-03-24T09:13:11;14.80;99.90
3134;DHT22;1577;49.912;10.924;2023-03-24T09:15:37;14.90;99.90
3134;DHT22;1577;49.912;10.924;2023-03-24T09:18:03;15.00;99.90
3134;DHT22;1577;49.912;10.924;2023-03-24T09:20:28;15.10;99.90
3134;DHT22;1577;49.912;10.924;2023-03-24T09:22:54;15.20;99.90
3134;DHT22;1577;49.912;10.924;2023-03-24T09:25:21;15.30;99.90
3134;DHT22;1577;49.912;10.924;2023-03-24T09:27:47;15.40;99.90
3134;DHT22;1577;49.912;10.924;2023-03-24T09:30:14;15.50;99.90
3134;DHT22;1577;49.912;10.924;2023-03-24T09:32:40;15.60;99.90
3134;DHT22;1577;49.912;10.924;2023-03-24T09:35:07;15.80;99.90
3134;DHT22;1577;49.912;10.924;2023-03-24T09:37:34;15.80;99.90
3134;DHT22;1577;49.912;10.924;2023-03-24T09:40:00;15.80;99.90
3134;DHT22;1577;49.912;10.924;2023-03-24T09:42:34;15.70;99.90
3134;DHT22;1577;49.912;10.924;2023-03-24T09:45:12;15.60;99.90
3134;DHT22;1577;49.912;10.924;2023-03-24T09:50:28;15.40;99.90
3134;DHT22;1577;49.912;10.924;2023-03-24T09:53:03;15.30;99.90
3134;DHT22;1577;49.912;10.924;2023-03-24T09:55:31;15.20;99.90
3134;DHT22;1577;49.912;10.924;2023-03-24T09:58:03;15.20;99.90
3134;DHT22;1577;49.912;10.924;2023-03-24T10:00:31;15.10;99.90
3134;DHT22;1577;49.912;10.924;2023-03-24T10:03:18;15.10;99.90
3134;DHT22;1577;49.912;10.924;2023-03-24T10:08:40;15.20;99.90
3134;DHT22;1577;49.912;10.924;2023-03-24T10:11:28;15.10;99.90
3134;DHT22;1577;49.912;10.924;2023-03-24T10:20:04;15.50;99.90
3134;DHT22;1577;49.912;10.924;2023-03-24T10:23:03;15.60;99.90
3134;DHT22;1577;49.912;10.924;2023-03-24T10:25:51;15.60;99.90
3134;DHT22;1577;49.912;10.924;2023-03-24T10:28:38;15.50;99.90
3134;DHT22;1577;49.912;10.924;2023-03-24T10:31:10;15.50;99.90
3134;DHT22;1577;49.912;10.924;2023-03-24T10:33:43;15.50;99.90
3134;DHT22;1577;49.912;10.924;2023-03-24T10:38:36;15.60;99.90
3134;DHT22;1577;49.912;10.924;2023-03-24T10:41:02;15.60;99.90
3134;DHT22;1577;49.912;10.924;2023-03-24T10:43:28;15.60;99.90
3134;DHT22;1577;49.912;10.924;2023-03-24T10:45:56;15.60;99.90
3134;DHT22;1577;49.912;10.924;2023-03-24T10:48:42;15.60;99.90
3134;DHT22;1577;49.912;10.924;2023-03-24T10:51:17;15.40;99.90
3134;DHT22;1577;49.912;10.924;2023-03-24T10:53:44;15.30;99.90
3134;DHT22;1577;49.912;10.924;2023-03-24T10:59:01;15.00;99.90
3134;DHT22;1577;49.912;10.924;2023-03-24T11:01:28;14.80;99.90
3134;DHT22;1577;49.912;10.924;2023-03-24T11:03:59;14.70;99.90
3134;DHT22;1577;49.912;10.924;2023-03-24T11:06:28;14.50;99.90
3134;DHT22;1577;49.912;10.924;2023-03-24T11:09:37;14.40;99.90
3134;DHT22;1577;49.912;10.924;2023-03-24T11:12:03;14.40;99.90
3134;DHT22;1577;49.912;10.924;2023-03-24T11:14:29;14.40;99.90
3134;DHT22;1577;49.912;10.924;2023-03-24T11:17:13;14.50;99.90
3134;DHT22;1577;49.912;10.924;2023-03-24T11:19:55;14.70;99.90
3134;DHT22;1577;49.912;10.924;2023-03-24T11:22:22;14.80;99.90
3134;DHT22;1577;49.912;10.924;2023-03-24T11:24:52;14.90;99.90
3134;DHT22;1577;49.912;10.924;2023-03-24T11:27:19;15.10;99.90
3134;DHT22;1577;49.912;10.924;2023-03-24T11:29:51;15.20;99.90
3134;DHT22;1577;49.912;10.924;2023-03-24T11:32:25;15.30;99.90
3134;DHT22;1577;49.912;10.924;2023-03-24T11:35:06;15.30;99.90
3134;DHT22;1577;49.912;10.924;2023-03-24T11:37:36;15.40;99.90
3134;DHT22;1577;49.912;10.924;2023-03-24T11:42:47;15.60;99.90
3134;DHT22;1577;49.912;10.924;2023-03-24T11:47:55;15.80;99.90
3134;DHT22;1577;49.912;10.924;2023-03-24T11:50:37;15.80;99.90
3134;DHT22;1577;49.912;10.924;2023-03-24T11:53:23;15.70;99.90
3134;DHT22;1577;49.912;10.924;2023-03-24T11:56:10;15.80;99.90
3134;DHT22;1577;49.912;10.924;2023-03-24T11:58:50;15.80;99.90
3134;DHT22;1577;49.912;10.924;2023-03-24T12:03:54;15.70;99.90
3134;DHT22;1577;49.912;10.924;2023-03-24T12:09:49;15.70;99.90
3134;DHT22;1577;49.912;10.924;2023-03-24T12:12:50;15.60;99.90
3134;DHT22;1577;49.912;10.924;2023-03-24T12:20:52;14.90;99.90
3134;DHT22;1577;49.912;10.924;2023-03-24T12:28:54;14.80;99.90
3134;DHT22;1577;49.912;10.924;2023-03-24T12:34:10;15.00;99.90
3134;DHT22;1577;49.912;10.924;2023-03-24T12:37:02;15.00;99.90
3134;DHT22;1577;49.912;10.924;2023-03-24T12:39:34;15.10;99.90
3134;DHT22;1577;49.912;10.924;2023-03-24T12:42:12;15.10;99.90
3134;DHT22;1577;49.912;10.924;2023-03-24T12:45:10;15.10;99.90
3134;DHT22;1577;49.912;10.924;2023-03-24T12:53:28;15.60;99.90
3134;DHT22;1577;49.912;10.924;2023-03-24T12:56:00;15.90;99.90
3134;DHT22;1577;49.912;10.924;2023-03-24T13:03:43;16.30;99.90
3134;DHT22;1577;49.912;10.924;2023-03-24T13:08:50;16.20;99.90
3134;DHT22;1577;49.912;10.924;2023-03-24T13:11:29;16.10;99.90
3134;DHT22;1577;49.912;10.924;2023-03-24T13:13:57;16.00;99.90
3134;DHT22;1577;49.912;10.924;2023-03-24T13:16:30;15.80;99.90
3134;DHT22;1577;49.912;10.924;2023-03-24T13:18:59;15.40;99.90
3134;DHT22;1577;49.912;10.924;2023-03-24T13:21:26;14.70;99.90
3134;DHT22;1577;49.912;10.924;2023-03-24T13:24:21;14.00;99.90
3134;DHT22;1577;49.912;10.924;2023-03-24T13:27:03;13.50;99.90
3134;DHT22;1577;49.912;10.924;2023-03-24T13:37:27;12.60;99.90
3134;DHT22;1577;49.912;10.924;2023-03-24T13:39:57;12.40;99.90
3134;DHT22;1577;49.912;10.924;2023-03-24T13:42:36;12.30;99.90
3134;DHT22;1577;49.912;10.924;2023-03-24T13:45:06;12.20;99.90
3134;DHT22;1577;49.912;10.924;2023-03-24T13:48:00;12.10;99.90
3134;DHT22;1577;49.912;10.924;2023-03-24T13:50:27;12.10;99.90
3134;DHT22;1577;49.912;10.924;2023-03-24T13:52:53;12.10;99.90
3134;DHT22;1577;49.912;10.924;2023-03-24T13:55:26;12.10;99.90
3134;DHT22;1577;49.912;10.924;2023-03-24T13:57:57;12.10;99.90
3134;DHT22;1577;49.912;10.924;2023-03-24T14:00:25;12.10;99.90
3134;DHT22;1577;49.912;10.924;2023-03-24T14:03:13;12.10;99.90
3134;DHT22;1577;49.912;10.924;2023-03-24T14:06:00;12.20;99.90
3134;DHT22;1577;49.912;10.924;2023-03-24T14:16:51;12.40;99.90
3134;DHT22;1577;49.912;10.924;2023-03-24T14:19:26;12.40;99.90
3134;DHT22;1577;49.912;10.924;2023-03-24T14:22:24;12.40;99.90
3134;DHT22;1577;49.912;10.924;2023-03-24T14:25:04;12.50;99.90
3134;DHT22;1577;49.912;10.924;2023-03-24T14:27:44;12.50;99.90
3134;DHT22;1577;49.912;10.924;2023-03-24T14:30:23;12.60;99.90
3134;DHT22;1577;49.912;10.924;2023-03-24T14:33:00;12.60;99.90
3134;DHT22;1577;49.912;10.924;2023-03-24T14:35:38;12.70;99.90
3134;DHT22;1577;49.912;10.924;2023-03-24T14:38:24;12.70;99.90
3134;DHT22;1577;49.912;10.924;2023-03-24T14:40:56;12.60;99.90
3134;DHT22;1577;49.912;10.924;2023-03-24T14:43:25;12.70;99.90
3134;DHT22;1577;49.912;10.924;2023-03-24T14:54:02;12.80;99.90
3134;DHT22;1577;49.912;10.924;2023-03-24T14:56:35;12.80;99.90
3134;DHT22;1577;49.912;10.924;2023-03-24T14:59:15;12.80;99.90
3134;DHT22;1577;49.912;10.924;2023-03-24T15:01:43;12.90;99.90
3134;DHT22;1577;49.912;10.924;2023-03-24T15:04:13;13.00;99.90
3134;DHT22;1577;49.912;10.924;2023-03-24T15:06:46;13.10;99.90
3134;DHT22;1577;49.912;10.924;2023-03-24T15:09:14;13.20;99.90
3134;DHT22;1577;49.912;10.924;2023-03-24T15:11:41;13.20;99.90
3134;DHT22;1577;49.912;10.924;2023-03-24T15:14:26;13.30;99.90
3134;DHT22;1577;49.912;10.924;2023-03-24T15:16:59;13.40;99.90
3134;DHT22;1577;49.912;10.924;2023-03-24T15:19:28;13.40;99.90
3134;DHT22;1577;49.912;10.924;2023-03-24T15:22:11;13.50;99.90
3134;DHT22;1577;49.912;10.924;2023-03-24T15:24:40;13.50;99.90
3134;DHT22;1577;49.912;10.924;2023-03-24T15:29:36;13.60;99.90
3134;DHT22;1577;49.912;10.924;2023-03-24T15:32:03;13.60;99.90
3134;DHT22;1577;49.912;10.924;2023-03-24T15:37:05;13.70;99.90
3134;DHT22;1577;49.912;10.924;2023-03-24T15:41:59;13.70;99.90
3134;DHT22;1577;49.912;10.924;2023-03-24T15:44:27;13.60;99.90
3134;DHT22;1577;49.912;10.924;2023-03-24T15:46:57;13.70;99.90
3134;DHT22;1577;49.912;10.924;2023-03-24T15:49:31;13.60;99.90
3134;DHT22;1577;49.912;10.924;2023-03-24T15:52:03;13.60;99.90
3134;DHT22;1577;49.912;10.924;2023-03-24T15:54:41;13.60;99.90
3134;DHT22;1577;49.912;10.924;2023-03-24T15:57:15;13.70;99.90
3134;DHT22;1577;49.912;10.924;2023-03-24T15:59:50;13.70;99.90
3134;DHT22;1577;49.912;10.924;2023-03-24T16:02:38;13.70;99.90
3134;DHT22;1577;49.912;10.924;2023-03-24T16:05:22;13.70;99.90
3134;DHT22;1577;49.912;10.924;2023-03-24T16:07:58;13.70;99.90
3134;DHT22;1577;49.912;10.924;2023-03-24T16:10:27;13.70;99.90
3134;DHT22;1577;49.912;10.924;2023-03-24T16:15:40;13.70;99.90
3134;DHT22;1577;49.912;10.924;2023-03-24T16:18:07;13.80;99.90
3134;DHT22;1577;49.912;10.924;2023-03-24T16:20:33;13.80;99.90
3134;DHT22;1577;49.912;10.924;2023-03-24T16:22:59;13.80;99.90
3134;DHT22;1577;49.912;10.924;2023-03-24T16:25:24;13.80;99.90
3134;DHT22;1577;49.912;10.924;2023-03-24T16:27:50;13.70;99.90
3134;DHT22;1577;49.912;10.924;2023-03-24T16:30:21;13.70;99.90
3134;DHT22;1577;49.912;10.924;2023-03-24T16:32:49;13.60;99.90
3134;DHT22;1577;49.912;10.924;2023-03-24T16:35:15;13.50;99.90
3134;DHT22;1577;49.912;10.924;2023-03-24T16:37:41;13.50;99.90
3134;DHT22;1577;49.912;10.924;2023-03-24T16:40:45;13.50;99.90
3134;DHT22;1577;49.912;10.924;2023-03-24T16:43:12;13.40;99.90
3134;DHT22;1577;49.912;10.924;2023-03-24T16:45:40;13.40;99.90
3134;DHT22;1577;49.912;10.924;2023-03-24T16:48:06;13.40;99.90
3134;DHT22;1577;49.912;10.924;2023-03-24T16:50:35;13.40;99.90
3134;DHT22;1577;49.912;10.924;2023-03-24T16:53:01;13.40;99.90
3134;DHT22;1577;49.912;10.924;2023-03-24T16:55:30;13.40;99.90
3134;DHT22;1577;49.912;10.924;2023-03-24T16:57:55;13.30;99.90
3134;DHT22;1577;49.912;10.924;2023-03-24T17:00:21;13.20;99.90
3134;DHT22;1577;49.912;10.924;2023-03-24T17:02:48;13.20;99.90
3134;DHT22;1577;49.912;10.924;2023-03-24T17:05:26;13.20;99.90
3134;DHT22;1577;49.912;10.924;2023-03-24T17:07:53;13.10;99.90
3134;DHT22;1577;49.912;10.924;2023-03-24T17:10:20;13.10;99.90
3134;DHT22;1577;49.912;10.924;2023-03-24T17:12:47;13.00;99.90
3134;DHT22;1577;49.912;10.924;2023-03-24T17:15:17;13.00;99.90
3134;DHT22;1577;49.912;10.924;2023-03-24T17:17:44;13.00;99.90
3134;DHT22;1577;49.912;10.924;2023-03-24T17:20:10;13.00;99.90
3134;DHT22;1577;49.912;10.924;2023-03-24T17:22:35;13.00;99.90
3134;DHT22;1577;49.912;10.924;2023-03-24T17:25:01;12.90;99.90
3134;DHT22;1577;49.912;10.924;2023-03-24T17:27:28;12.90;99.90
3134;DHT22;1577;49.912;10.924;2023-03-24T17:29:54;12.90;99.90
3134;DHT22;1577;49.912;10.924;2023-03-24T17:32:20;12.90;99.90
3134;DHT22;1577;49.912;10.924;2023-03-24T17:34:51;12.80;99.90
3134;DHT22;1577;49.912;10.924;2023-03-24T17:37:16;12.80;99.90
3134;DHT22;1577;49.912;10.924;2023-03-24T17:39:42;12.70;99.90
3134;DHT22;1577;49.912;10.924;2023-03-24T17:42:08;12.70;99.90
3134;DHT22;1577;49.912;10.924;2023-03-24T17:44:34;12.60;99.90
3134;DHT22;1577;49.912;10.924;2023-03-24T17:46:59;12.50;99.90
3134;DHT22;1577;49.912;10.924;2023-03-24T17:49:25;12.40;99.90
3134;DHT22;1577;49.912;10.924;2023-03-24T17:51:51;12.40;99.90
3134;DHT22;1577;49.912;10.924;2023-03-24T17:54:16;12.30;99.90
3134;DHT22;1577;49.912;10.924;2023-03-24T17:56:44;12.30;99.90
3134;DHT22;1577;49.912;10.924;2023-03-24T17:59:10;12.20;99.90
3134;DHT22;1577;49.912;10.924;2023-03-24T18:01:35;12.10;99.90
3134;DHT22;1577;49.912;10.924;2023-03-24T18:04:03;12.10;99.90
3134;DHT22;1577;49.912;10.924;2023-03-24T18:06:29;12.10;99.90
3134;DHT22;1577;49.912;10.924;2023-03-24T18:08:55;12.10;99.90
3134;DHT22;1577;49.912;10.924;2023-03-24T18:11:22;12.00;99.90
3134;DHT22;1577;49.912;10.924;2023-03-24T18:13:48;12.00;99.90
3134;DHT22;1577;49.912;10.924;2023-03-24T18:16:14;11.90;99.90